createdAt,value
2023-01-17T00:02:46.467Z,2.17
2023-01-17T00:08:02.082Z,2.15
2023-01-17T00:13:00.628Z,2.14
2023-01-17T00:17:57.477Z,2.10
2023-01-17T00:23:12.430Z,2.05
2023-01-17T00:28:09.108Z,2.04
2023-01-17T00:33:05.805Z,2.02
2023-01-17T00:38:16.652Z,2.03
2023-01-17T00:43:34.576Z,2.08
2023-01-17T00:48:50.068Z,2.13
2023-01-17T00:54:05.176Z,2.21
2023-01-17T00:59:21.427Z,2.23
2023-01-17T01:04:36.474Z,2.30
2023-01-17T01:09:51.577Z,2.32
2023-01-17T01:15:07.291Z,2.33
2023-01-17T01:20:22.717Z,2.37
2023-01-17T01:25:37.872Z,2.30
2023-01-17T01:30:52.917Z,2.25
2023-01-17T01:35:54.762Z,2.24
2023-01-17T01:40:53.961Z,2.26
2023-01-17T01:45:56.068Z,2.29
2023-01-17T01:50:52.716Z,2.35
2023-01-17T01:55:51.231Z,2.37
2023-01-17T02:00:47.826Z,2.41
2023-01-17T02:05:44.507Z,2.43
2023-01-17T02:10:41.986Z,2.43
2023-01-17T02:15:57.756Z,2.38
2023-01-17T02:21:03.575Z,2.38
2023-01-17T02:26:24.863Z,2.37
2023-01-17T02:31:36.915Z,2.40
2023-01-17T02:36:40.004Z,2.32
2023-01-17T02:41:40.679Z,2.33
2023-01-17T02:46:48.048Z,2.26
2023-01-17T02:52:15.959Z,2.20
2023-01-17T02:57:46.431Z,2.16
2023-01-17T03:03:03.188Z,2.16
2023-01-17T03:08:02.442Z,2.09
2023-01-17T03:13:00.999Z,2.00
2023-01-17T03:18:03.643Z,1.93
2023-01-17T03:23:00.194Z,1.92
2023-01-17T03:27:56.590Z,1.88
2023-01-17T03:32:53.024Z,1.88
2023-01-17T03:37:49.534Z,1.85
2023-01-17T03:42:45.991Z,1.86
2023-01-17T03:47:42.383Z,1.87
2023-01-17T03:52:39.097Z,1.84
2023-01-17T03:57:35.532Z,1.71
2023-01-17T04:02:31.916Z,1.48
2023-01-17T04:07:28.301Z,1.28
2023-01-17T04:12:24.668Z,1.23
2023-01-17T04:17:21.184Z,1.29
2023-01-17T04:22:17.527Z,1.27
2023-01-17T04:27:14.374Z,1.16
2023-01-17T04:32:11.006Z,0.98
2023-01-17T04:37:07.352Z,0.80
2023-01-17T04:42:03.911Z,0.77
2023-01-17T04:47:02.000Z,0.78
2023-01-17T04:51:58.547Z,0.60
2023-01-17T04:56:54.918Z,0.55
2023-01-17T05:01:51.326Z,0.55
2023-01-17T05:06:47.661Z,0.55
2023-01-17T05:11:44.002Z,0.55
2023-01-17T05:16:40.675Z,0.52
2023-01-17T05:21:37.024Z,0.48
2023-01-17T05:26:33.387Z,0.48
2023-01-17T05:31:29.983Z,0.46
2023-01-17T05:36:26.373Z,0.49
2023-01-17T05:41:22.738Z,0.51
2023-01-17T05:46:19.375Z,0.42
2023-01-17T05:51:15.797Z,0.39
2023-01-17T05:56:12.262Z,0.36
2023-01-17T06:01:08.670Z,0.38
2023-01-17T06:06:05.173Z,0.41
2023-01-17T06:11:01.539Z,0.43
2023-01-17T06:16:02.688Z,0.44
2023-01-17T06:20:59.153Z,0.44
2023-01-17T06:25:55.518Z,0.43
2023-01-17T06:30:51.942Z,0.43
2023-01-17T06:35:49.808Z,0.45
2023-01-17T06:40:46.244Z,0.45
2023-01-17T06:45:42.601Z,0.43
2023-01-17T06:50:38.930Z,0.41
2023-01-17T06:55:37.319Z,0.45
2023-01-17T07:00:38.199Z,0.43
2023-01-17T07:05:36.419Z,0.41
2023-01-17T07:10:32.855Z,0.46
2023-01-17T07:15:29.244Z,0.50
2023-01-17T07:20:25.605Z,0.51
2023-01-17T07:25:22.229Z,0.50
2023-01-17T07:30:18.733Z,0.47
2023-01-17T07:35:15.220Z,0.51
2023-01-17T07:40:11.991Z,0.48
2023-01-17T07:45:09.066Z,0.50
2023-01-17T07:50:06.431Z,0.48
2023-01-17T07:55:02.820Z,0.50
2023-01-17T07:59:59.219Z,0.53
2023-01-17T08:04:55.574Z,0.51
2023-01-17T08:09:52.004Z,0.48
2023-01-17T08:14:48.356Z,0.52
2023-01-17T08:19:44.977Z,0.52
2023-01-17T08:24:42.192Z,0.55
2023-01-17T08:29:42.015Z,0.57
2023-01-17T08:34:38.473Z,0.52
2023-01-17T08:39:34.850Z,0.60
2023-01-17T08:44:31.474Z,0.61
2023-01-17T08:49:30.633Z,0.61
2023-01-17T08:54:27.065Z,0.64
2023-01-17T08:59:23.838Z,0.58
2023-01-17T09:04:20.291Z,0.62
2023-01-17T09:09:17.295Z,0.67
2023-01-17T09:14:14.024Z,0.72
2023-01-17T09:19:10.508Z,0.80
2023-01-17T09:24:07.094Z,0.89
2023-01-17T09:29:03.603Z,0.86
2023-01-17T09:34:00.148Z,0.93
2023-01-17T09:38:58.234Z,0.89
2023-01-17T09:44:00.843Z,0.72
2023-01-17T09:49:06.634Z,0.67
2023-01-17T09:54:03.121Z,0.70
2023-01-17T09:59:11.667Z,0.67
2023-01-17T10:04:45.461Z,0.76
2023-01-17T10:09:47.991Z,1.01
2023-01-17T10:15:12.615Z,1.21
2023-01-17T10:20:33.852Z,1.20
2023-01-17T10:25:46.327Z,1.27
2023-01-17T10:30:57.845Z,1.41
2023-01-17T10:36:00.565Z,1.60
2023-01-17T10:41:09.235Z,1.42
2023-01-17T10:46:05.876Z,1.25
2023-01-17T10:51:19.403Z,1.11
2023-01-17T10:56:18.289Z,1.26
2023-01-17T11:01:19.738Z,1.32
2023-01-17T11:06:25.546Z,1.46
2023-01-17T11:11:25.970Z,1.27
2023-01-17T11:16:28.703Z,1.26
2023-01-17T11:21:25.563Z,1.33
2023-01-17T11:26:25.391Z,1.62
2023-01-17T11:31:26.479Z,1.47
2023-01-17T11:36:31.571Z,1.43
2023-01-17T11:41:36.414Z,1.62
2023-01-17T11:46:33.510Z,1.71
2023-01-17T11:51:33.103Z,2.10
2023-01-17T11:56:35.818Z,2.27
2023-01-17T12:02:10.001Z,2.33
2023-01-17T12:07:36.036Z,2.05
2023-01-17T12:13:03.813Z,2.35
2023-01-17T12:18:09.034Z,2.36
2023-01-17T12:23:13.998Z,2.21
2023-01-17T12:28:22.269Z,2.26
2023-01-17T12:33:43.814Z,2.75
2023-01-17T12:38:40.275Z,2.95
2023-01-17T12:43:40.678Z,3.20
2023-01-17T12:48:40.334Z,2.92
2023-01-17T12:53:52.075Z,2.94
2023-01-17T12:58:53.117Z,2.74
2023-01-17T13:04:11.328Z,2.73
2023-01-17T13:09:13.610Z,2.50
2023-01-17T13:14:10.490Z,2.56
2023-01-17T13:19:28.884Z,2.62
2023-01-17T13:24:31.558Z,2.64
2023-01-17T13:29:37.078Z,2.63
2023-01-17T13:35:14.463Z,2.59
2023-01-17T13:40:34.588Z,2.37
2023-01-17T13:45:36.250Z,2.19
2023-01-17T13:50:38.886Z,2.39
2023-01-17T13:55:46.760Z,2.45
2023-01-17T14:00:43.104Z,2.54
2023-01-17T14:05:39.447Z,2.66
2023-01-17T14:10:40.839Z,2.36
2023-01-17T14:15:49.624Z,2.65
2023-01-17T14:20:50.221Z,2.45
2023-01-17T14:25:46.934Z,2.55
2023-01-17T14:30:43.570Z,2.48
2023-01-17T14:35:50.968Z,2.52
2023-01-17T14:40:54.124Z,2.65
2023-01-17T14:45:57.758Z,2.30
2023-01-17T14:50:58.577Z,2.14
2023-01-17T14:55:59.063Z,2.09
2023-01-17T15:01:01.641Z,2.08
2023-01-17T15:06:10.253Z,2.06
2023-01-17T15:11:11.638Z,2.01
2023-01-17T15:16:24.135Z,1.87
2023-01-17T15:21:23.368Z,1.74
2023-01-17T15:26:22.257Z,1.63
2023-01-17T15:31:24.151Z,1.50
2023-01-17T15:36:20.513Z,1.34
2023-01-17T15:41:21.366Z,1.25
2023-01-17T15:46:29.234Z,1.22
2023-01-17T15:51:36.090Z,1.25
2023-01-17T15:56:33.607Z,1.18
2023-01-17T16:01:30.854Z,1.23
2023-01-17T16:06:45.435Z,1.22
2023-01-17T16:11:41.762Z,1.20
2023-01-17T16:16:38.200Z,1.12
2023-01-17T16:21:34.612Z,1.05
2023-01-17T16:26:30.964Z,0.85
2023-01-17T16:31:27.484Z,0.84
2023-01-17T16:36:23.842Z,0.73
2023-01-17T16:41:20.623Z,0.69
2023-01-17T16:46:20.955Z,0.55
2023-01-17T16:51:19.229Z,0.40
2023-01-17T16:56:17.864Z,0.38
2023-01-17T17:01:17.257Z,0.33
2023-01-17T17:06:13.932Z,0.10
2023-01-17T17:11:13.167Z,-0.12
2023-01-17T17:16:14.889Z,-0.33
2023-01-17T17:21:12.120Z,-0.59
2023-01-17T17:26:08.546Z,-0.51
2023-01-17T17:31:07.877Z,-0.47
2023-01-17T17:36:10.307Z,-0.49
2023-01-17T17:41:09.748Z,-0.85
2023-01-17T17:46:06.753Z,-0.94
2023-01-17T17:51:04.264Z,-1.03
2023-01-17T17:56:05.601Z,-1.12
2023-01-17T18:01:03.683Z,-1.27
2023-01-17T18:06:08.855Z,-1.47
2023-01-17T18:11:11.187Z,-1.44
2023-01-17T18:16:11.156Z,-1.72
2023-01-17T18:21:16.394Z,-1.74
2023-01-17T18:26:19.010Z,-1.73
2023-01-17T18:31:15.848Z,-1.79
2023-01-17T18:36:13.335Z,-1.89
2023-01-17T18:41:15.507Z,-1.99
2023-01-17T18:46:12.393Z,-2.01
2023-01-17T18:51:13.686Z,-2.08
2023-01-17T18:56:14.135Z,-2.09
2023-01-17T19:01:16.326Z,-2.22
2023-01-17T19:06:16.849Z,-2.43
2023-01-17T19:11:13.249Z,-2.39
2023-01-17T19:16:14.223Z,-2.40
2023-01-17T19:21:13.966Z,-2.38
2023-01-17T19:26:12.597Z,-2.41
2023-01-17T19:31:13.256Z,-2.39
2023-01-17T19:36:13.535Z,-2.44
2023-01-17T19:41:23.625Z,-2.48
2023-01-17T19:46:20.259Z,-2.58
2023-01-17T19:51:16.721Z,-2.62
2023-01-17T19:56:19.879Z,-2.67
2023-01-17T20:01:25.171Z,-2.73
2023-01-17T20:06:24.130Z,-2.78
2023-01-17T20:11:23.349Z,-2.81
2023-01-17T20:16:21.292Z,-2.79
2023-01-17T20:21:22.948Z,-2.83
2023-01-17T20:26:23.341Z,-2.94
2023-01-17T20:31:24.524Z,-2.89
2023-01-17T20:36:23.145Z,-2.90
2023-01-17T20:41:22.440Z,-3.09
2023-01-17T20:46:21.012Z,-3.00
2023-01-17T20:51:18.372Z,-2.97
2023-01-17T20:56:15.461Z,-3.17
2023-01-17T21:01:19.075Z,-3.30
2023-01-17T21:06:15.566Z,-3.19
2023-01-17T21:11:15.427Z,-3.17
2023-01-17T21:16:14.259Z,-3.23
2023-01-17T21:21:12.775Z,-3.13
2023-01-17T21:26:12.068Z,-3.22
2023-01-17T21:31:22.950Z,-3.24
2023-01-17T21:36:21.651Z,-3.14
2023-01-17T21:41:20.566Z,-3.16
2023-01-17T21:46:16.896Z,-3.47
2023-01-17T21:51:13.498Z,-3.51
2023-01-17T21:56:31.773Z,-3.33
2023-01-17T22:01:32.090Z,-3.29
2023-01-17T22:06:31.559Z,-3.45
2023-01-17T22:11:30.297Z,-3.60
2023-01-17T22:16:26.747Z,-3.57
2023-01-17T22:21:26.187Z,-3.60
2023-01-17T22:26:27.908Z,-3.78
2023-01-17T22:31:26.218Z,-3.69
2023-01-17T22:36:23.452Z,-3.68
2023-01-17T22:41:22.264Z,-3.80
2023-01-17T22:46:24.932Z,-3.85
2023-01-17T22:51:23.523Z,-3.86
2023-01-17T22:56:22.818Z,-3.95
2023-01-17T23:01:24.630Z,-3.95
2023-01-17T23:06:27.239Z,-3.75
2023-01-17T23:11:43.661Z,-3.77
2023-01-17T23:17:02.363Z,-3.76
2023-01-17T23:22:18.475Z,-3.77
2023-01-17T23:27:37.379Z,-3.56
2023-01-17T23:32:33.788Z,-3.49
2023-01-17T23:37:49.584Z,-3.37
2023-01-17T23:43:04.698Z,-3.37
2023-01-17T23:48:01.782Z,-3.43
2023-01-17T23:52:58.556Z,-3.44
2023-01-17T23:57:55.974Z,-3.46
